sensor_id;sensor_type;location;lat;lon;timestamp;temperature;humidity
53274;DHT22;39163;52.696;6.758;2023-02-01T00:01:17;5.30;99.90
53274;DHT22;39163;52.696;6.758;2023-02-01T00:03:43;5.40;99.90
53274;DHT22;39163;52.696;6.758;2023-02-01T00:06:09;5.40;99.90
53274;DHT22;39163;52.696;6.758;2023-02-01T01:23:19;5.60;99.90
53274;DHT22;39163;52.696;6.758;2023-02-01T01:26:48;5.70;99.90
53274;DHT22;39163;52.696;6.758;2023-02-01T01:33:00;5.80;99.90
53274;DHT22;39163;52.696;6.758;2023-02-01T01:35:35;5.80;99.90
53274;DHT22;39163;52.696;6.758;2023-02-01T01:44:58;5.90;99.90
53274;DHT22;39163;52.696;6.758;2023-02-01T01:47:35;6.00;99.90
53274;DHT22;39163;52.696;6.758;2023-02-01T01:50:03;6.00;99.90
53274;DHT22;39163;52.696;6.758;2023-02-01T01:52:31;6.00;99.90
53274;DHT22;39163;52.696;6.758;2023-02-01T01:54:57;6.00;99.90
53274;DHT22;39163;52.696;6.758;2023-02-01T01:57:25;5.90;99.90
53274;DHT22;39163;52.696;6.758;2023-02-01T02:00:07;6.00;99.90
53274;DHT22;39163;52.696;6.758;2023-02-01T02:02:42;6.00;99.90
53274;DHT22;39163;52.696;6.758;2023-02-01T02:05:16;6.00;99.90
53274;DHT22;39163;52.696;6.758;2023-02-01T02:07:46;6.00;99.90
53274;DHT22;39163;52.696;6.758;2023-02-01T02:10:15;6.00;99.90
53274;DHT22;39163;52.696;6.758;2023-02-01T02:12:47;6.00;99.90
53274;DHT22;39163;52.696;6.758;2023-02-01T02:15:18;6.00;99.90
53274;DHT22;39163;52.696;6.758;2023-02-01T02:31:25;6.00;99.90
53274;DHT22;39163;52.696;6.758;2023-02-01T02:38:58;6.00;99.90
53274;DHT22;39163;52.696;6.758;2023-02-01T02:41:31;5.90;99.90
53274;DHT22;39163;52.696;6.758;2023-02-01T02:44:34;6.00;99.90
53274;DHT22;39163;52.696;6.758;2023-02-01T02:47:27;6.00;99.90
53274;DHT22;39163;52.696;6.758;2023-02-01T02:50:02;5.90;99.90
53274;DHT22;39163;52.696;6.758;2023-02-01T02:52:51;5.90;99.90
53274;DHT22;39163;52.696;6.758;2023-02-01T02:55:35;5.90;99.90
53274;DHT22;39163;52.696;6.758;2023-02-01T02:58:02;5.90;99.90
53274;DHT22;39163;52.696;6.758;2023-02-01T03:00:48;5.90;99.90
53274;DHT22;39163;52.696;6.758;2023-02-01T03:03:36;5.80;99.90
53274;DHT22;39163;52.696;6.758;2023-02-01T03:06:22;5.80;99.90
53274;DHT22;39163;52.696;6.758;2023-02-01T03:08:47;5.80;99.90
53274;DHT22;39163;52.696;6.758;2023-02-01T03:11:14;5.80;99.90
53274;DHT22;39163;52.696;6.758;2023-02-01T03:13:46;5.80;99.90
53274;DHT22;39163;52.696;6.758;2023-02-01T03:16:20;5.80;99.90
53274;DHT22;39163;52.696;6.758;2023-02-01T03:18:56;5.80;99.90
53274;DHT22;39163;52.696;6.758;2023-02-01T03:21:26;5.80;99.90
53274;DHT22;39163;52.696;6.758;2023-02-01T03:24:10;5.80;99.90
53274;DHT22;39163;52.696;6.758;2023-02-01T03:26:37;5.70;99.90
53274;DHT22;39163;52.696;6.758;2023-02-01T03:29:14;5.70;99.90
53274;DHT22;39163;52.696;6.758;2023-02-01T03:31:44;5.70;99.90
53274;DHT22;39163;52.696;6.758;2023-02-01T03:34:22;5.70;99.90
53274;DHT22;39163;52.696;6.758;2023-02-01T03:36:52;5.70;99.90
53274;DHT22;39163;52.696;6.758;2023-02-01T03:39:25;5.90;99.90
53274;DHT22;39163;52.696;6.758;2023-02-01T03:41:56;5.70;99.90
53274;DHT22;39163;52.696;6.758;2023-02-01T03:46:54;5.80;99.90
53274;DHT22;39163;52.696;6.758;2023-02-01T03:49:29;5.80;99.90
53274;DHT22;39163;52.696;6.758;2023-02-01T03:51:56;5.80;99.90
53274;DHT22;39163;52.696;6.758;2023-02-01T03:54:22;5.80;99.90
53274;DHT22;39163;52.696;6.758;2023-02-01T03:56:49;5.80;99.90
53274;DHT22;39163;52.696;6.758;2023-02-01T03:59:15;5.90;99.90
53274;DHT22;39163;52.696;6.758;2023-02-01T04:01:41;5.90;99.90
53274;DHT22;39163;52.696;6.758;2023-02-01T04:04:07;5.90;99.90
53274;DHT22;39163;52.696;6.758;2023-02-01T04:06:32;5.90;99.90
53274;DHT22;39163;52.696;6.758;2023-02-01T04:08:58;5.90;99.90
53274;DHT22;39163;52.696;6.758;2023-02-01T04:11:23;5.90;99.90
53274;DHT22;39163;52.696;6.758;2023-02-01T04:13:49;5.90;99.90
53274;DHT22;39163;52.696;6.758;2023-02-01T04:16:15;5.90;99.90
53274;DHT22;39163;52.696;6.758;2023-02-01T04:18:40;5.90;99.90
53274;DHT22;39163;52.696;6.758;2023-02-01T04:21:06;5.90;99.90
53274;DHT22;39163;52.696;6.758;2023-02-01T04:23:32;5.80;99.90
53274;DHT22;39163;52.696;6.758;2023-02-01T04:26:01;5.90;99.90
53274;DHT22;39163;52.696;6.758;2023-02-01T04:28:27;5.80;99.90
53274;DHT22;39163;52.696;6.758;2023-02-01T04:30:53;5.80;99.90
53274;DHT22;39163;52.696;6.758;2023-02-01T04:33:18;5.80;99.90
53274;DHT22;39163;52.696;6.758;2023-02-01T04:35:44;5.80;99.90
53274;DHT22;39163;52.696;6.758;2023-02-01T04:38:10;5.90;99.90
53274;DHT22;39163;52.696;6.758;2023-02-01T04:40:42;5.80;99.90
53274;DHT22;39163;52.696;6.758;2023-02-01T04:43:43;5.70;99.90
53274;DHT22;39163;52.696;6.758;2023-02-01T04:46:05;5.80;99.90
53274;DHT22;39163;52.696;6.758;2023-02-01T04:48:36;5.90;99.90
53274;DHT22;39163;52.696;6.758;2023-02-01T04:51:01;5.90;99.90
53274;DHT22;39163;52.696;6.758;2023-02-01T04:53:27;5.90;99.90
53274;DHT22;39163;52.696;6.758;2023-02-01T06:31:57;6.30;99.90
53274;DHT22;39163;52.696;6.758;2023-02-01T06:34:31;6.40;99.90
53274;DHT22;39163;52.696;6.758;2023-02-01T06:36:57;6.40;99.90
53274;DHT22;39163;52.696;6.758;2023-02-01T06:39:25;6.40;99.90
53274;DHT22;39163;52.696;6.758;2023-02-01T06:42:05;6.40;99.90
53274;DHT22;39163;52.696;6.758;2023-02-01T06:47:44;6.40;99.90
53274;DHT22;39163;52.696;6.758;2023-02-01T06:53:39;6.50;99.90
53274;DHT22;39163;52.696;6.758;2023-02-01T06:56:28;6.40;99.90
53274;DHT22;39163;52.696;6.758;2023-02-01T06:59:30;6.50;99.90
53274;DHT22;39163;52.696;6.758;2023-02-01T16:02:57;7.70;99.90
53274;DHT22;39163;52.696;6.758;2023-02-01T16:06:26;7.70;99.90
53274;DHT22;39163;52.696;6.758;2023-02-01T16:08:28;7.70;99.90
53274;DHT22;39163;52.696;6.758;2023-02-01T16:13:47;7.60;99.90
53274;DHT22;39163;52.696;6.758;2023-02-01T16:16:34;7.50;99.90
53274;DHT22;39163;52.696;6.758;2023-02-01T16:22:13;7.40;99.90
53274;DHT22;39163;52.696;6.758;2023-02-01T16:24:40;7.40;99.90
53274;DHT22;39163;52.696;6.758;2023-02-01T16:27:18;7.50;99.90
53274;DHT22;39163;52.696;6.758;2023-02-01T16:29:49;7.40;99.90
53274;DHT22;39163;52.696;6.758;2023-02-01T16:32:40;7.40;99.90
53274;DHT22;39163;52.696;6.758;2023-02-01T16:35:14;7.40;99.90
53274;DHT22;39163;52.696;6.758;2023-02-01T16:37:44;7.50;99.90
53274;DHT22;39163;52.696;6.758;2023-02-01T16:40:15;7.40;99.90
53274;DHT22;39163;52.696;6.758;2023-02-01T16:42:43;7.30;99.90
53274;DHT22;39163;52.696;6.758;2023-02-01T16:48:16;7.30;99.90
53274;DHT22;39163;52.696;6.758;2023-02-01T16:50:57;7.20;99.90
53274;DHT22;39163;52.696;6.758;2023-02-01T16:53:49;7.20;99.90
53274;DHT22;39163;52.696;6.758;2023-02-01T17:05:47;6.90;99.90
53274;DHT22;39163;52.696;6.758;2023-02-01T17:11:35;6.90;99.90
53274;DHT22;39163;52.696;6.758;2023-02-01T17:14:09;6.90;99.90
53274;DHT22;39163;52.696;6.758;2023-02-01T17:16:41;6.80;99.90
53274;DHT22;39163;52.696;6.758;2023-02-01T17:19:20;6.80;99.90
53274;DHT22;39163;52.696;6.758;2023-02-01T17:21:54;6.80;99.90
53274;DHT22;39163;52.696;6.758;2023-02-01T17:24:30;6.80;99.90
53274;DHT22;39163;52.696;6.758;2023-02-01T17:27:00;6.60;99.90
53274;DHT22;39163;52.696;6.758;2023-02-01T17:29:38;6.70;99.90
53274;DHT22;39163;52.696;6.758;2023-02-01T17:34:59;6.60;99.90
53274;DHT22;39163;52.696;6.758;2023-02-01T17:37:45;6.70;99.90
53274;DHT22;39163;52.696;6.758;2023-02-01T17:40:13;6.60;99.90
53274;DHT22;39163;52.696;6.758;2023-02-01T17:42:39;6.60;99.90
53274;DHT22;39163;52.696;6.758;2023-02-01T17:47:57;6.60;99.90
53274;DHT22;39163;52.696;6.758;2023-02-01T17:50:23;6.60;99.90
53274;DHT22;39163;52.696;6.758;2023-02-01T17:52:59;6.50;99.90
53274;DHT22;39163;52.696;6.758;2023-02-01T21:17:09;5.60;99.90
53274;DHT22;39163;52.696;6.758;2023-02-01T21:19:34;5.60;99.90
53274;DHT22;39163;52.696;6.758;2023-02-01T21:22:08;5.50;99.90
53274;DHT22;39163;52.696;6.758;2023-02-01T21:24:37;5.60;99.90
53274;DHT22;39163;52.696;6.758;2023-02-01T21:27:02;5.60;99.90
53274;DHT22;39163;52.696;6.758;2023-02-01T21:29:36;5.60;99.90
53274;DHT22;39163;52.696;6.758;2023-02-01T21:32:01;5.60;99.90
53274;DHT22;39163;52.696;6.758;2023-02-01T21:34:27;5.50;99.90
53274;DHT22;39163;52.696;6.758;2023-02-01T21:36:53;5.60;99.90
53274;DHT22;39163;52.696;6.758;2023-02-01T21:39:20;5.60;99.90
53274;DHT22;39163;52.696;6.758;2023-02-01T21:41:48;5.50;99.90
53274;DHT22;39163;52.696;6.758;2023-02-01T21:44:33;5.50;99.90
53274;DHT22;39163;52.696;6.758;2023-02-01T21:46:59;5.40;99.90
53274;DHT22;39163;52.696;6.758;2023-02-01T21:49:24;5.50;99.90
53274;DHT22;39163;52.696;6.758;2023-02-01T21:51:52;5.40;99.90
53274;DHT22;39163;52.696;6.758;2023-02-01T21:54:18;5.40;99.90
53274;DHT22;39163;52.696;6.758;2023-02-01T21:56:44;5.40;99.90
53274;DHT22;39163;52.696;6.758;2023-02-01T21:59:10;5.40;99.90
53274;DHT22;39163;52.696;6.758;2023-02-01T22:01:37;5.40;99.90
53274;DHT22;39163;52.696;6.758;2023-02-01T22:04:03;5.30;99.90
53274;DHT22;39163;52.696;6.758;2023-02-01T22:06:36;5.30;99.90
53274;DHT22;39163;52.696;6.758;2023-02-01T22:09:02;5.30;99.90
53274;DHT22;39163;52.696;6.758;2023-02-01T22:11:28;5.30;99.90
53274;DHT22;39163;52.696;6.758;2023-02-01T22:13:54;5.30;99.90
53274;DHT22;39163;52.696;6.758;2023-02-01T22:16:20;5.20;99.90
53274;DHT22;39163;52.696;6.758;2023-02-01T22:18:46;5.20;99.90
53274;DHT22;39163;52.696;6.758;2023-02-01T22:21:12;5.10;99.90
53274;DHT22;39163;52.696;6.758;2023-02-01T22:23:38;5.10;99.90
53274;DHT22;39163;52.696;6.758;2023-02-01T22:26:04;5.10;99.90
53274;DHT22;39163;52.696;6.758;2023-02-01T22:28:37;5.00;99.90
53274;DHT22;39163;52.696;6.758;2023-02-01T22:31:04;5.00;99.90
53274;DHT22;39163;52.696;6.758;2023-02-01T22:33:35;5.00;99.90
53274;DHT22;39163;52.696;6.758;2023-02-01T22:36:21;4.90;99.90
53274;DHT22;39163;52.696;6.758;2023-02-01T22:38:52;4.90;99.90
53274;DHT22;39163;52.696;6.758;2023-02-01T22:41:23;5.00;99.90
53274;DHT22;39163;52.696;6.758;2023-02-01T22:57:43;4.70;99.90
53274;DHT22;39163;52.696;6.758;2023-02-01T23:00:09;4.70;99.90
53274;DHT22;39163;52.696;6.758;2023-02-01T23:02:40;4.70;99.90
53274;DHT22;39163;52.696;6.758;2023-02-01T23:12:47;4.60;99.90
53274;DHT22;39163;52.696;6.758;2023-02-01T23:15:14;4.50;99.90
53274;DHT22;39163;52.696;6.758;2023-02-01T23:17:42;4.60;99.90
53274;DHT22;39163;52.696;6.758;2023-02-01T23:20:12;4.50;99.90
53274;DHT22;39163;52.696;6.758;2023-02-01T23:22:39;4.50;99.90
53274;DHT22;39163;52.696;6.758;2023-02-01T23:25:05;4.50;99.90
53274;DHT22;39163;52.696;6.758;2023-02-01T23:51:19;4.40;99.90
53274;DHT22;39163;52.696;6.758;2023-02-01T23:53:58;4.30;99.90
53274;DHT22;39163;52.696;6.758;2023-02-01T23:56:34;4.40;99.90
53274;DHT22;39163;52.696;6.758;2023-02-01T23:59:20;4.30;99.90
